• Join FlightAware (Why Join?)
  • Login
  • US Flag 
10:53PM EDT


 

Airport Tracker/Info


-or-


 

Live Flight TrackerFlight Track Log ✈ RPA4937 ✈ 30-Apr-2013 ✈ KORF - KEWR

Flight Track Log - Related Links

Times and Time Zones

All times are in EDT time to prevent confusion due to time zone crossing. See the RPA4937 flight status page for this flight to view local times or setup timezone preferences in your user account.

Time Position Orientation Groundspeed Altitude Reporting Facility
EDT Latitude Longitude Course Direction KTS MPH feet Rate Location/Type
06:02PM 36.9014 -76.1944 293° West 162 186 600  Level Washington Center
06:03PM 36.9517 -76.1792 14° North 220 253 3,400 2,280 Climbing Washington Center
06:04PM 36.9639 -76.2158 293° West 223 257 4,700 2,160 Climbing Washington Center
06:05PM 36.9614 -76.3042 268° West 218 251 7,100 2,400 Climbing Washington Center
06:06PM 37.0932 -76.6182 300° West  Level FlightAware Approximate
06:06PM 36.9586 -76.3950 268° West 244 281 9,600  Level Washington Center
06:07PM 37.1425 -76.7266 300° West  Level FlightAware Approximate
06:07PM 37.0039 -76.4814 303° West 249 287 12,500  Level Washington Center
06:08PM 37.1899 -76.8363 293° West  Level FlightAware Approximate
06:08PM 37.0431 -76.5547 304° West 249 287 14,900  Level Washington Center
06:09PM 37.0758 -76.6228 301° West 254 292 17,400 1,740 Climbing Washington Center
06:10PM 37.1383 -76.6289 356° North 217 250 18,500 780 Climbing Washington Center
06:11PM 37.2136 -76.6142 North 228 262 19,000 240 Climbing Washington Center
06:12PM 37.2992 -76.5969 North 268 308 19,000  Level Washington Center
06:13PM 37.3933 -76.5772 North 308 354 19,000  Level Washington Center
06:14PM 37.4872 -76.5603 North 331 381 19,000  Level Washington Center
06:15PM 37.5792 -76.5403 10° North 331 381 19,000  Level Washington Center
06:16PM 37.6711 -76.5233 North 331 381 19,000  Level Washington Center
06:17PM 37.7547 -76.5083 North 331 381 19,000  Level Washington Center
06:18PM 37.8467 -76.4858 11° North 331 381 19,000  Level Washington Center
06:19PM 37.9364 -76.4633 11° North 331 381 19,000  Level Washington Center
06:20PM 38.0283 -76.4406 11° North 331 381 19,000  Level Washington Center
06:21PM 38.1203 -76.4206 10° North 331 381 19,000 -360 Level Washington Center
06:22PM 38.2122 -76.3978 11° North 331 381 18,300 -960 Descending Washington Center
06:23PM 38.3042 -76.3750 11° North 331 381 17,100 -1,380 Descending Washington Center
06:24PM 38.3939 -76.3572 North 331 381 15,600 -1,500 Descending Washington Center
06:25PM 38.4836 -76.3369 10° North 331 381 14,100 -1,200 Descending Washington Center
06:26PM 38.5714 -76.3139 12° North 331 381 13,300 -600 Descending Washington Center
06:27PM 38.6550 -76.2908 12° North 326 375 13,000 -180 Descending Washington Center
06:28PM 38.7425 -76.2625 14° North 316 364 13,000  Level Washington Center
06:29PM 38.8242 -76.2311 17° North 316 364 13,000 -240 Level Washington Center
06:30PM 38.9097 -76.1811 24° Northeast 322 371 12,600 -780 Descending Washington Center
06:31PM 39.0039 -76.1206 27° Northeast 334 384 11,500 -840 Descending Washington Center
06:32PM 39.0811 -76.0783 23° Northeast 325 374 11,000 -300 Descending Washington Center
06:33PM 39.1606 -76.0306 25° Northeast 314 361 11,000 -60 Level Washington Center
06:34PM 39.2400 -75.9803 26° Northeast 314 361 10,900 -60 Descending Washington Center
06:35PM 39.3192 -75.9350 24° Northeast 308 354 10,900  Level Washington Center
06:37PM 39.4833 -75.8333 26° Northeast 316 364 11,000  Climbing Philadelphia TRACON
06:38PM 39.5500 -75.7667 38° Northeast 318 366 11,000  Level Philadelphia TRACON
06:39PM 39.6167 -75.6833 44° Northeast 315 362 11,000  Level Philadelphia TRACON
06:40PM 39.6833 -75.6000 44° Northeast 316 364 11,000 -60 Level Philadelphia TRACON
06:41PM 39.7167 -75.4833 70° East 314 361 10,900 -600 Descending Philadelphia TRACON
06:42PM 39.7333 -75.4000 75° East 276 318 9,800 -960 Descending Philadelphia TRACON
06:43PM 39.7667 -75.3000 67° East 282 325 9,000 -480 Descending Philadelphia TRACON
06:44PM 39.7833 -75.2167 75° East 278 320 9,000  Level Philadelphia TRACON
06:45PM 39.8167 -75.1167 67° East 273 314 9,000 -420 Level Philadelphia TRACON
06:46PM 39.8500 -75.0333 62° Northeast 276 318 8,200 -960 Descending Philadelphia TRACON
06:47PM 39.8833 -74.9500 62° Northeast 255 293 7,100 -600 Descending Philadelphia TRACON
06:48PM 39.9333 -74.8833 46° Northeast 254 292 7,000  Descending Philadelphia TRACON
06:49PM 40.0000 -74.8000 44° Northeast 256 295 7,100  Climbing New York TRACON
06:50PM 40.0333 -74.7333 57° Northeast 256 295 7,000 -60 Descending New York TRACON
06:51PM 40.0833 -74.6667 46° Northeast 256 295 7,000  Level New York TRACON
06:52PM 40.1333 -74.6000 46° Northeast 255 293 7,000  Level New York TRACON
06:53PM 40.1833 -74.5333 46° Northeast 256 295 7,000  Level New York TRACON
06:54PM 40.2333 -74.5333 360° North 271 312 7,000 -240 Level New York TRACON
06:55PM 40.2833 -74.6000 315° West 266 306 6,600 -720 Descending New York TRACON
06:56PM 40.3333 -74.6500 323° Northwest 254 292 5,600 -720 Descending New York TRACON
06:57PM 40.4167 -74.6667 351° North 248 285 5,100 -300 Descending New York TRACON
06:58PM 40.4833 -74.7167 330° Northwest 258 297 5,000 -540 Descending New York TRACON
06:59PM 40.5333 -74.7500 333° Northwest 232 267 4,100 -960 Descending New York TRACON
07:00PM 40.5833 -74.7000 37° Northeast 228 262 3,100 -540 Descending New York TRACON
07:01PM 40.6167 -74.6333 57° Northeast 223 257 3,100 -60 Level New York TRACON
07:02PM 40.6500 -74.5667 57° Northeast 221 254 3,000 -60 Descending New York TRACON
07:04PM 40.6833 -74.4833 62° Northeast 217 250 3,000  Level New York TRACON
07:05PM 40.7167 -74.4167 57° Northeast 198 228 3,000 -120 Level New York TRACON
07:06PM 40.7167 -74.3500 90° East 191 220 2,800 -720 Descending New York TRACON
07:07PM 40.7000 -74.2833 108° East 191 220 1,600 -960 Descending New York TRACON
07:08PM 40.7000 -74.2167 90° East 138 159 800 -840 Descending New York TRACON